createdAt,value
2022-11-16T00:02:22.002Z,7.90
2022-11-16T00:04:51.331Z,7.89
2022-11-16T00:07:20.628Z,7.86
2022-11-16T00:09:49.835Z,7.85
2022-11-16T00:12:18.965Z,7.83
2022-11-16T00:14:48.114Z,7.80
2022-11-16T00:17:17.357Z,7.80
2022-11-16T00:19:48.752Z,7.81
2022-11-16T00:22:17.973Z,7.81
2022-11-16T00:24:47.109Z,7.81
2022-11-16T00:27:16.341Z,7.82
2022-11-16T00:29:45.376Z,7.86
2022-11-16T00:32:14.798Z,7.87
2022-11-16T00:35:02.169Z,7.91
2022-11-16T00:37:36.561Z,7.82
2022-11-16T00:40:11.346Z,7.81
2022-11-16T00:42:40.626Z,7.78
2022-11-16T00:45:11.450Z,7.73
2022-11-16T00:47:40.572Z,7.78
2022-11-16T00:50:11.460Z,7.72
2022-11-16T00:52:40.511Z,7.81
2022-11-16T00:55:10.544Z,7.79
2022-11-16T00:57:40.218Z,7.74
2022-11-16T01:00:12.312Z,7.68
2022-11-16T01:02:41.863Z,7.66
2022-11-16T01:05:13.088Z,7.66
2022-11-16T01:07:42.767Z,7.67
2022-11-16T01:10:16.000Z,7.65
2022-11-16T01:12:45.179Z,7.66
2022-11-16T01:15:17.495Z,7.70
2022-11-16T01:17:46.954Z,7.66
2022-11-16T01:20:21.163Z,7.67
2022-11-16T01:22:51.139Z,7.71
2022-11-16T01:25:21.292Z,7.65
2022-11-16T01:27:50.537Z,7.63
2022-11-16T01:30:31.157Z,7.59
2022-11-16T01:33:05.468Z,7.60
2022-11-16T01:35:36.111Z,7.62
2022-11-16T01:38:05.931Z,7.63
2022-11-16T01:40:37.630Z,7.64
2022-11-16T01:43:17.356Z,7.66
2022-11-16T01:45:48.401Z,7.66
2022-11-16T01:48:21.999Z,7.66
2022-11-16T01:50:55.075Z,7.67
2022-11-16T01:53:24.588Z,7.69
2022-11-16T01:55:58.251Z,7.71
2022-11-16T01:58:36.620Z,7.70
2022-11-16T02:01:16.828Z,7.66
2022-11-16T02:03:51.788Z,7.66
2022-11-16T02:06:36.814Z,7.70
2022-11-16T02:09:55.905Z,7.67
2022-11-16T02:13:14.499Z,7.75
2022-11-16T02:15:56.348Z,7.67
2022-11-16T02:18:37.213Z,7.68
2022-11-16T02:21:38.294Z,7.68
2022-11-16T02:24:41.291Z,7.68
2022-11-16T02:27:37.413Z,7.59
2022-11-16T02:30:09.726Z,7.54
2022-11-16T02:32:49.386Z,7.53
2022-11-16T02:35:24.875Z,7.53
2022-11-16T02:38:01.380Z,7.51
2022-11-16T02:40:36.485Z,7.52
2022-11-16T02:43:10.227Z,7.50
2022-11-16T02:45:45.385Z,7.52
2022-11-16T02:48:21.413Z,7.55
2022-11-16T02:50:53.445Z,7.54
2022-11-16T02:53:25.489Z,7.54
2022-11-16T02:55:56.433Z,7.56
2022-11-16T03:05:33.101Z,7.64
2022-11-16T03:08:19.952Z,7.68
2022-11-16T03:11:13.677Z,7.69
2022-11-16T03:13:46.627Z,7.70
2022-11-16T03:16:21.881Z,7.70
2022-11-16T03:18:54.427Z,7.71
2022-11-16T04:53:40.447Z,7.46
2022-11-16T04:56:17.645Z,7.42
2022-11-16T04:58:46.756Z,7.48
2022-11-16T05:01:16.067Z,7.51
2022-11-16T05:03:45.487Z,7.44
2022-11-16T05:06:15.229Z,7.38
2022-11-16T05:08:46.107Z,7.31
2022-11-16T05:11:15.108Z,7.25
2022-11-16T05:13:44.364Z,7.21
2022-11-16T05:16:17.912Z,7.21
2022-11-16T05:19:07.611Z,7.22
2022-11-16T05:21:36.708Z,7.22
2022-11-16T05:24:25.152Z,7.19
2022-11-16T05:26:54.887Z,7.23
2022-11-16T05:29:25.159Z,7.24
2022-11-16T05:31:54.362Z,7.23
2022-11-16T05:34:23.743Z,7.31
2022-11-16T05:36:53.256Z,7.23
2022-11-16T05:39:24.053Z,7.28
2022-11-16T05:41:55.732Z,7.34
2022-11-16T05:44:25.421Z,7.32
2022-11-16T05:46:56.238Z,7.26
2022-11-16T05:49:25.715Z,7.26
2022-11-16T05:51:56.515Z,7.27
2022-11-16T05:54:27.692Z,7.23
2022-11-16T05:56:57.214Z,7.20
2022-11-16T05:59:27.750Z,7.20
2022-11-16T06:01:58.402Z,7.32
2022-11-16T06:04:27.558Z,7.28
2022-11-16T06:06:58.358Z,7.23
2022-11-16T06:09:33.293Z,7.19
2022-11-16T06:12:11.912Z,7.17
2022-11-16T06:14:41.033Z,7.19
2022-11-16T06:17:14.444Z,7.26
2022-11-16T06:19:43.888Z,7.26
2022-11-16T06:22:13.504Z,7.35
2022-11-16T06:24:43.909Z,7.41
2022-11-16T06:27:12.942Z,7.45
2022-11-16T06:29:43.066Z,7.51
2022-11-16T06:32:12.015Z,7.54
2022-11-16T06:34:43.669Z,7.61
2022-11-16T06:37:14.166Z,7.65
2022-11-16T06:39:45.711Z,7.75
2022-11-16T06:42:15.482Z,7.71
2022-11-16T06:44:44.555Z,7.80
2022-11-16T06:47:17.660Z,7.85
2022-11-16T06:49:47.612Z,7.93
2022-11-16T06:52:22.475Z,7.88
2022-11-16T06:54:53.817Z,7.88
2022-11-16T06:57:23.372Z,7.83
2022-11-16T06:59:54.195Z,7.83
2022-11-16T07:02:23.726Z,7.86
2022-11-16T07:04:52.939Z,7.79
2022-11-16T07:07:22.015Z,7.77
2022-11-16T07:09:53.411Z,7.81
2022-11-16T07:12:22.588Z,7.78
2022-11-16T07:14:52.033Z,7.82
2022-11-16T07:17:21.776Z,7.84
2022-11-16T07:19:50.830Z,7.93
2022-11-16T07:22:19.852Z,7.93
2022-11-16T07:24:51.017Z,8.00
2022-11-16T07:27:23.491Z,8.09
2022-11-16T07:29:54.147Z,8.06
2022-11-16T07:32:35.700Z,8.00
2022-11-16T07:35:12.946Z,7.82
2022-11-16T07:37:42.746Z,7.97
2022-11-16T07:40:13.037Z,8.21
2022-11-16T07:42:43.688Z,8.21
2022-11-16T07:49:38.171Z,8.25
2022-11-16T07:52:14.902Z,8.23
2022-11-16T07:55:07.957Z,8.15
2022-11-16T07:57:38.227Z,8.15
2022-11-16T08:00:12.816Z,8.15
2022-11-16T08:02:53.589Z,8.12
2022-11-16T08:05:23.260Z,8.04
2022-11-16T08:07:53.452Z,8.03
2022-11-16T08:10:26.536Z,8.03
2022-11-16T08:12:57.212Z,7.95
2022-11-16T08:15:30.944Z,7.93
2022-11-16T08:18:03.350Z,7.97
2022-11-16T08:20:32.937Z,8.06
2022-11-16T08:23:02.134Z,8.13
2022-11-16T08:25:35.065Z,8.17
2022-11-16T08:28:04.124Z,8.23
2022-11-16T08:30:35.653Z,8.30
2022-11-16T08:33:04.793Z,8.35
2022-11-16T08:35:35.438Z,8.31
2022-11-16T08:38:04.834Z,8.32
2022-11-16T08:40:33.866Z,8.27
2022-11-16T08:43:02.965Z,8.21
2022-11-16T08:45:33.834Z,8.33
2022-11-16T08:48:05.193Z,8.46
2022-11-16T08:51:02.371Z,8.49
2022-11-16T08:53:25.745Z,8.50
2022-11-16T08:55:54.682Z,8.62
2022-11-16T08:58:25.037Z,8.55
2022-11-16T18:45:11.184Z,6.88
2022-11-16T18:47:40.735Z,6.84
2022-11-16T18:50:18.214Z,6.84
2022-11-16T18:52:49.299Z,7.03
2022-11-16T18:55:18.965Z,7.16
2022-11-16T18:57:48.335Z,7.12
2022-11-16T19:00:21.874Z,7.09
2022-11-16T19:02:50.892Z,7.06
2022-11-16T19:05:20.243Z,7.01
2022-11-16T19:07:49.191Z,6.96
2022-11-16T19:10:18.109Z,6.94
2022-11-16T19:12:47.580Z,6.95
2022-11-16T19:15:18.366Z,7.00
2022-11-16T19:18:06.775Z,6.98
2022-11-16T19:20:37.587Z,7.01
2022-11-16T19:23:07.097Z,7.05
2022-11-16T19:25:36.328Z,7.04
2022-11-16T19:28:06.024Z,6.97
2022-11-16T19:30:36.783Z,6.97
2022-11-16T19:33:07.080Z,7.02
2022-11-16T19:35:38.539Z,7.05
2022-11-16T19:38:08.452Z,7.11
2022-11-16T19:40:39.546Z,7.15
2022-11-16T19:43:08.794Z,7.14
2022-11-16T19:45:39.654Z,7.16
2022-11-16T19:48:08.833Z,7.12
2022-11-16T19:50:37.774Z,7.15
2022-11-16T19:53:06.738Z,7.17
2022-11-16T19:55:35.676Z,7.16
2022-11-16T19:58:05.752Z,7.20
2022-11-16T20:00:34.785Z,7.33
2022-11-16T20:03:05.612Z,7.41
2022-11-16T20:05:34.810Z,7.47
2022-11-16T20:08:05.806Z,7.43
2022-11-16T20:10:34.920Z,7.29
2022-11-16T20:13:03.961Z,7.41
2022-11-16T20:15:33.078Z,7.39
2022-11-16T20:18:02.081Z,7.48
2022-11-16T20:20:33.851Z,7.38
2022-11-16T20:23:03.569Z,7.32
2022-11-16T20:25:32.908Z,7.28
2022-11-16T20:28:01.891Z,7.38
2022-11-16T20:30:31.114Z,7.39
2022-11-16T20:33:00.007Z,7.30
2022-11-16T20:35:28.998Z,7.25
2022-11-16T20:37:59.420Z,7.22
2022-11-16T20:40:28.488Z,7.31
2022-11-16T20:43:00.526Z,7.27
2022-11-16T20:45:34.647Z,7.29
2022-11-16T20:48:04.482Z,7.29
2022-11-16T20:50:33.913Z,7.42
2022-11-16T20:53:04.264Z,7.32
2022-11-16T20:55:33.748Z,7.27
2022-11-16T20:58:02.939Z,7.16
2022-11-16T21:00:32.021Z,7.18
2022-11-16T21:03:00.995Z,7.17
2022-11-16T21:05:29.970Z,7.19
2022-11-16T21:08:01.736Z,7.28
2022-11-16T21:10:35.519Z,7.26
2022-11-16T21:13:19.248Z,7.19
2022-11-16T21:15:57.057Z,7.14
2022-11-16T21:18:30.885Z,7.08
2022-11-16T21:21:00.907Z,7.03
2022-11-16T21:23:32.649Z,6.90
2022-11-16T21:26:06.252Z,6.86
2022-11-16T21:28:35.730Z,6.82
2022-11-16T21:31:08.247Z,6.83
2022-11-16T21:33:37.728Z,6.85
2022-11-16T21:36:10.766Z,6.76
2022-11-16T21:38:40.140Z,6.54
2022-11-16T21:41:12.271Z,6.35
2022-11-16T21:43:41.550Z,6.19
2022-11-16T21:46:13.040Z,6.09
2022-11-16T21:48:42.606Z,5.95
2022-11-16T21:51:15.062Z,5.85
2022-11-16T21:53:44.929Z,5.75
2022-11-16T21:56:17.753Z,5.64
2022-11-16T21:58:50.091Z,5.59
2022-11-16T22:01:19.199Z,5.65
2022-11-16T22:04:08.304Z,5.74
2022-11-16T22:06:54.815Z,5.65
2022-11-16T22:09:23.859Z,5.63
2022-11-16T22:11:54.146Z,5.65
2022-11-16T22:14:23.122Z,5.53
2022-11-16T22:16:51.986Z,5.39
2022-11-16T22:19:20.896Z,5.28
2022-11-16T22:21:49.824Z,5.17
2022-11-16T22:24:18.807Z,5.08
2022-11-16T22:26:47.819Z,5.07
2022-11-16T22:29:18.085Z,4.98
2022-11-16T22:31:47.523Z,4.94
2022-11-16T22:34:16.432Z,5.02
2022-11-16T22:36:45.359Z,5.28
2022-11-16T22:39:14.612Z,5.37
2022-11-16T22:41:43.619Z,5.34
2022-11-16T22:44:12.525Z,5.30
2022-11-16T22:46:42.801Z,5.44
2022-11-16T22:49:11.739Z,5.34
2022-11-16T22:51:40.640Z,5.18
2022-11-16T22:54:12.553Z,5.09
2022-11-16T22:56:41.469Z,4.99
2022-11-16T22:59:10.862Z,4.88
2022-11-16T23:01:40.094Z,4.93
2022-11-16T23:04:10.726Z,4.91
2022-11-16T23:06:39.670Z,4.97
2022-11-16T23:09:08.751Z,5.08
2022-11-16T23:11:55.191Z,5.22
2022-11-16T23:14:41.345Z,5.34
2022-11-16T23:17:10.357Z,5.31
2022-11-16T23:19:58.143Z,5.33
2022-11-16T23:22:44.594Z,5.37
2022-11-16T23:25:31.276Z,5.47
2022-11-16T23:28:05.241Z,5.60
2022-11-16T23:30:36.220Z,5.66
2022-11-16T23:33:05.466Z,5.81
2022-11-16T23:35:36.031Z,5.77
2022-11-16T23:38:07.265Z,5.87
2022-11-16T23:40:39.325Z,5.75
2022-11-16T23:43:29.001Z,5.90
2022-11-16T23:45:57.886Z,5.82
2022-11-16T23:48:26.836Z,5.98
2022-11-16T23:50:57.095Z,5.93
2022-11-16T23:53:26.051Z,5.81
2022-11-16T23:55:54.949Z,5.79
2022-11-16T23:58:23.879Z,5.71
